createdAt,value
2017-12-07T00:00:27.983Z,2.20
2017-12-07T00:02:59.227Z,2.20
2017-12-07T00:05:28.231Z,2.20
2017-12-07T00:10:50.069Z,2.10
2017-12-07T00:13:29.967Z,2.10
2017-12-07T00:16:03.405Z,2.10
2017-12-07T00:18:35.055Z,2.10
2017-12-07T00:21:03.079Z,2.10
2017-12-07T00:23:34.362Z,2.10
2017-12-07T00:26:02.392Z,2.10
2017-12-07T00:31:29.511Z,2.10
2017-12-07T00:33:59.548Z,2.10
2017-12-07T00:36:29.536Z,2.10
2017-12-07T00:39:20.702Z,2.10
2017-12-07T00:42:01.175Z,2.00
2017-12-07T00:44:29.454Z,2.10
2017-12-07T00:46:58.374Z,2.10
2017-12-07T00:49:46.275Z,2.00
2017-12-07T00:52:14.287Z,2.00
2017-12-07T00:55:00.126Z,2.00
2017-12-07T00:57:36.835Z,2.00
2017-12-07T01:00:04.870Z,1.90
2017-12-07T01:05:40.731Z,1.90
2017-12-07T01:08:08.746Z,1.90
2017-12-07T01:10:36.771Z,1.80
2017-12-07T01:13:04.818Z,1.80
2017-12-07T01:15:33.594Z,1.80
2017-12-07T01:18:01.611Z,1.80
2017-12-07T01:20:29.642Z,1.80
2017-12-07T01:22:57.662Z,1.80
2017-12-07T01:25:25.678Z,1.70
2017-12-07T01:27:53.711Z,1.70
2017-12-07T01:30:22.138Z,1.70
2017-12-07T01:32:53.974Z,1.70
2017-12-07T01:35:22.958Z,1.60
2017-12-07T01:37:50.974Z,1.60
2017-12-07T01:40:19.004Z,1.60
2017-12-07T01:42:51.370Z,1.60
2017-12-07T01:45:20.419Z,1.60
2017-12-07T01:47:48.434Z,1.50
2017-12-07T01:50:16.454Z,1.50
2017-12-07T01:52:44.491Z,1.50
2017-12-07T01:55:12.506Z,1.50
2017-12-07T01:57:40.530Z,1.50
2017-12-07T02:00:08.554Z,1.40
2017-12-07T02:02:36.574Z,1.40
2017-12-07T02:05:05.360Z,1.40
2017-12-07T02:07:55.273Z,1.30
2017-12-07T02:10:23.290Z,1.30
2017-12-07T02:12:58.029Z,1.30
2017-12-07T02:15:28.958Z,1.30
2017-12-07T02:17:58.986Z,1.30
2017-12-07T02:20:28.982Z,1.30
2017-12-07T02:23:01.375Z,1.20
2017-12-07T02:25:34.242Z,1.20
2017-12-07T02:28:06.210Z,1.10
2017-12-07T02:30:34.254Z,1.10
2017-12-07T02:33:03.982Z,1.00
2017-12-07T02:35:35.857Z,1.00
2017-12-07T02:38:11.278Z,1.00
2017-12-07T02:40:46.737Z,0.90
2017-12-07T02:43:18.377Z,0.90
2017-12-07T02:45:54.945Z,0.90
2017-12-07T02:51:29.122Z,0.80
2017-12-07T02:54:08.381Z,0.80
2017-12-07T02:56:39.090Z,0.70
2017-12-07T02:59:07.869Z,0.70
2017-12-07T03:01:44.793Z,0.70
2017-12-07T03:04:17.841Z,0.70
2017-12-07T03:06:51.633Z,0.70
2017-12-07T03:09:23.461Z,0.60
2017-12-07T03:11:57.385Z,0.60
2017-12-07T03:14:38.356Z,0.60
2017-12-07T03:17:14.797Z,0.70
2017-12-07T03:19:43.649Z,0.60
2017-12-07T03:22:11.673Z,0.60
2017-12-07T03:24:43.861Z,0.60
2017-12-07T03:27:14.573Z,0.60
2017-12-07T03:29:59.077Z,0.50
2017-12-07T03:32:41.981Z,0.50
2017-12-07T03:35:10.782Z,0.50
2017-12-07T03:37:39.725Z,0.40
2017-12-07T03:40:12.981Z,0.50
2017-12-07T03:42:41.001Z,0.40
2017-12-07T03:45:09.017Z,0.40
2017-12-07T03:47:43.145Z,0.40
2017-12-07T03:50:16.161Z,0.40
2017-12-07T03:52:49.861Z,0.40
2017-12-07T03:55:17.881Z,0.40
2017-12-07T03:57:45.904Z,0.40
2017-12-07T04:00:28.365Z,0.30
2017-12-07T04:02:59.645Z,0.30
2017-12-07T04:05:41.901Z,0.20
2017-12-07T04:08:09.921Z,0.20
2017-12-07T04:10:38.912Z,0.10
2017-12-07T04:13:06.953Z,0.10
2017-12-07T04:15:36.893Z,0.10
2017-12-07T04:18:26.645Z,0.10
2017-12-07T04:21:00.384Z,0.10
2017-12-07T04:23:29.409Z,0.00
2017-12-07T04:26:00.109Z,0.00
2017-12-07T04:28:30.153Z,0.00
2017-12-07T04:31:02.797Z,0.00
2017-12-07T04:33:44.029Z,0.00
2017-12-07T04:39:05.601Z,0.00
2017-12-07T04:41:57.108Z,-0.10
2017-12-07T04:44:27.073Z,-0.10
2017-12-07T04:47:23.549Z,-0.10
2017-12-07T04:49:59.048Z,0.00
2017-12-07T04:52:43.073Z,-0.10
2017-12-07T04:55:25.057Z,-0.10
2017-12-07T04:57:56.985Z,-0.10
2017-12-07T05:00:25.957Z,-0.10
2017-12-07T05:02:58.917Z,-0.10
2017-12-07T05:05:34.436Z,-0.10
2017-12-07T05:10:58.481Z,-0.20
2017-12-07T05:13:29.189Z,-0.20
2017-12-07T05:15:58.205Z,-0.30
2017-12-07T05:18:34.724Z,-0.30
2017-12-07T05:21:07.645Z,-0.30
2017-12-07T05:23:42.433Z,-0.40
2017-12-07T05:26:13.627Z,-0.30
2017-12-07T05:28:42.597Z,-0.30
2017-12-07T05:31:13.673Z,-0.30
2017-12-07T05:33:57.729Z,-0.30
2017-12-07T05:36:25.785Z,-0.30
2017-12-07T05:39:00.973Z,-0.40
2017-12-07T05:41:29.997Z,-0.40
2017-12-07T05:43:58.033Z,-0.40
2017-12-07T05:46:45.856Z,-0.40
2017-12-07T05:52:24.788Z,-0.40
2017-12-07T05:54:58.441Z,-0.40
2017-12-07T05:57:55.549Z,-0.40
2017-12-07T06:00:34.885Z,-0.40
2017-12-07T06:03:14.650Z,-0.50
2017-12-07T06:05:57.217Z,-0.50
2017-12-07T06:08:33.013Z,-0.50
2017-12-07T06:11:21.437Z,-0.50
2017-12-07T06:14:03.641Z,-0.50
2017-12-07T06:16:45.416Z,-0.50
2017-12-07T06:19:30.392Z,-0.60
2017-12-07T06:21:58.416Z,-0.60
2017-12-07T06:24:32.244Z,-0.60
2017-12-07T06:27:06.221Z,-0.70
2017-12-07T06:29:51.661Z,-0.70
2017-12-07T06:32:37.528Z,-0.60
2017-12-07T06:35:18.312Z,-0.60
2017-12-07T06:37:52.985Z,-0.60
2017-12-07T06:40:36.165Z,-0.60
2017-12-07T06:45:57.673Z,-0.70
2017-12-07T06:48:28.381Z,-0.80
2017-12-07T06:50:57.406Z,-0.80
2017-12-07T06:53:46.692Z,-0.80
2017-12-07T06:56:27.191Z,-0.70
2017-12-07T06:58:56.188Z,-0.70
2017-12-07T07:01:24.224Z,-0.70
2017-12-07T07:03:56.698Z,-0.70
2017-12-07T07:06:28.492Z,-0.70
2017-12-07T07:08:56.536Z,-0.70
2017-12-07T07:11:41.768Z,-0.80
2017-12-07T07:14:24.705Z,-1.00
2017-12-07T07:16:54.668Z,-1.00
2017-12-07T07:22:17.032Z,-0.90
2017-12-07T07:24:53.128Z,-0.80
2017-12-07T07:27:24.300Z,-0.80
2017-12-07T07:29:57.237Z,-0.70
2017-12-07T07:32:27.948Z,-0.70
2017-12-07T07:34:55.968Z,-0.70
2017-12-07T07:37:44.637Z,-0.70
2017-12-07T07:40:25.928Z,-0.70
2017-12-07T07:42:54.824Z,-0.70
2017-12-07T07:45:24.860Z,-0.70
2017-12-07T07:47:56.840Z,-0.70
2017-12-07T07:50:28.880Z,-0.40
2017-12-07T07:52:56.908Z,-0.40
2017-12-07T07:55:24.940Z,-0.30
2017-12-07T07:57:57.972Z,-0.10
2017-12-07T08:00:27.012Z,-0.10
2017-12-07T08:02:56.936Z,0.10
2017-12-07T08:05:26.748Z,0.50
2017-12-07T08:08:03.172Z,0.50
2017-12-07T08:10:34.752Z,0.70
2017-12-07T08:13:02.777Z,0.70
2017-12-07T08:15:50.712Z,1.00
2017-12-07T08:18:19.740Z,1.00
2017-12-07T08:20:48.669Z,1.00
2017-12-07T08:23:22.716Z,1.40
2017-12-07T08:25:57.300Z,1.70
2017-12-07T08:28:27.103Z,2.00
2017-12-07T08:30:57.816Z,2.30
2017-12-07T08:33:31.411Z,2.30
2017-12-07T08:36:23.411Z,2.30
2017-12-07T08:38:56.048Z,2.50
2017-12-07T08:41:30.260Z,3.30
2017-12-07T08:44:00.964Z,3.60
2017-12-07T08:46:29.892Z,3.60
2017-12-07T08:49:09.280Z,4.10
2017-12-07T08:51:50.611Z,4.20
2017-12-07T08:54:34.366Z,4.50
2017-12-07T08:57:05.599Z,4.50
2017-12-07T08:59:34.411Z,5.20
2017-12-07T09:04:57.403Z,5.10
2017-12-07T09:07:34.059Z,5.70
2017-12-07T09:10:07.119Z,5.70
2017-12-07T09:12:35.143Z,5.70
2017-12-07T09:15:03.163Z,6.30
2017-12-07T09:17:36.807Z,6.60
2017-12-07T09:20:05.720Z,6.50
2017-12-07T09:22:33.743Z,6.50
2017-12-07T09:25:22.419Z,6.60
2017-12-07T09:27:55.422Z,7.00
2017-12-07T09:30:27.211Z,7.00
2017-12-07T09:32:55.991Z,7.50
2017-12-07T09:35:24.781Z,7.70
2017-12-07T09:37:59.082Z,7.80
2017-12-07T09:40:37.747Z,7.80
2017-12-07T09:43:05.791Z,8.10
2017-12-07T09:45:35.478Z,8.70
2017-12-07T09:48:03.507Z,8.70
2017-12-07T09:50:37.062Z,8.50
2017-12-07T09:53:09.863Z,9.00
2017-12-07T09:55:47.591Z,9.00
2017-12-07T09:58:16.510Z,9.00
2017-12-07T10:00:44.531Z,9.40
2017-12-07T10:03:22.315Z,9.50
2017-12-07T10:05:51.235Z,9.60
2017-12-07T10:08:22.419Z,9.50
2017-12-07T10:10:51.343Z,9.50
2017-12-07T10:13:29.687Z,9.40
2017-12-07T10:16:03.026Z,9.30
2017-12-07T10:18:33.711Z,10.10
2017-12-07T10:21:03.439Z,10.20
2017-12-07T10:23:31.458Z,10.10
2017-12-07T10:26:06.219Z,10.60
2017-12-07T10:28:37.375Z,10.50
2017-12-07T10:31:10.071Z,10.80
2017-12-07T10:33:41.846Z,10.70
2017-12-07T10:36:13.802Z,11.50
2017-12-07T10:38:45.639Z,11.80
2017-12-07T10:41:13.670Z,11.80
2017-12-07T10:43:43.630Z,12.00
2017-12-07T10:46:15.322Z,12.30
2017-12-07T10:48:43.350Z,12.10
2017-12-07T10:51:15.011Z,12.40
2017-12-07T10:53:43.995Z,12.60
2017-12-07T10:56:15.866Z,12.00
2017-12-07T10:58:43.903Z,12.40
2017-12-07T11:01:11.926Z,12.40
2017-12-07T11:03:48.482Z,13.50
2017-12-07T11:06:23.070Z,14.00
2017-12-07T11:08:54.340Z,14.00
2017-12-07T11:11:22.363Z,14.10
2017-12-07T11:13:50.382Z,14.40
2017-12-07T11:16:18.418Z,13.90
2017-12-07T11:18:50.306Z,14.30
2017-12-07T11:21:24.954Z,14.50
2017-12-07T11:23:54.641Z,14.30
2017-12-07T11:26:35.470Z,14.30
2017-12-07T11:29:05.418Z,14.40
2017-12-07T11:31:53.694Z,15.10
2017-12-07T11:34:23.534Z,13.60
2017-12-07T11:36:53.402Z,13.50
2017-12-07T11:39:31.062Z,13.00
2017-12-07T11:42:00.006Z,13.50
2017-12-07T11:44:32.146Z,14.20
2017-12-07T11:47:07.582Z,14.20
2017-12-07T11:49:35.622Z,14.60
2017-12-07T11:52:07.438Z,14.60
2017-12-07T11:54:38.154Z,14.70
2017-12-07T11:57:11.314Z,14.60
2017-12-07T11:59:43.278Z,14.70
2017-12-07T12:02:21.806Z,14.60
2017-12-07T12:04:54.680Z,14.90
2017-12-07T12:07:26.690Z,15.00
2017-12-07T12:09:55.494Z,15.40
2017-12-07T12:12:24.550Z,15.40
2017-12-07T12:14:52.593Z,15.50
2017-12-07T12:17:21.402Z,15.40
2017-12-07T12:19:49.438Z,15.40
2017-12-07T12:22:17.486Z,15.30
2017-12-07T12:24:45.510Z,15.60
2017-12-07T12:27:16.654Z,16.60
2017-12-07T12:29:45.667Z,16.80
2017-12-07T12:32:16.355Z,16.60
2017-12-07T12:34:44.374Z,16.60
2017-12-07T12:37:15.095Z,16.50
2017-12-07T12:39:44.077Z,16.50
2017-12-07T12:42:19.289Z,16.90
2017-12-07T12:44:47.320Z,16.80
2017-12-07T12:47:17.986Z,16.20
2017-12-07T12:49:46.921Z,16.20
2017-12-07T12:52:21.710Z,15.70
2017-12-07T12:54:49.757Z,15.70
2017-12-07T12:57:24.393Z,16.20
2017-12-07T12:59:52.429Z,15.90
2017-12-07T13:02:24.879Z,15.60
2017-12-07T13:04:53.810Z,15.60
2017-12-07T13:07:21.822Z,16.00
2017-12-07T13:09:54.145Z,16.30
2017-12-07T13:12:23.101Z,16.70
2017-12-07T13:14:51.121Z,16.40
2017-12-07T13:17:22.530Z,16.40
2017-12-07T13:19:50.545Z,15.80
2017-12-07T13:22:20.480Z,15.40
2017-12-07T13:24:53.937Z,15.30
2017-12-07T13:27:21.965Z,15.70
2017-12-07T13:29:53.437Z,15.50
2017-12-07T13:32:28.033Z,16.00
2017-12-07T13:34:57.037Z,15.90
2017-12-07T13:37:27.061Z,16.50
2017-12-07T13:39:55.853Z,16.20
2017-12-07T13:42:25.640Z,16.00
2017-12-07T13:44:54.449Z,16.10
2017-12-07T13:47:22.461Z,16.10
2017-12-07T13:49:50.492Z,16.10
2017-12-07T13:52:18.529Z,16.60
2017-12-07T13:54:46.564Z,16.50
2017-12-07T13:57:14.594Z,15.40
2017-12-07T13:59:44.625Z,14.10
2017-12-07T14:02:15.335Z,13.00
2017-12-07T14:04:43.369Z,12.90
2017-12-07T14:07:11.401Z,12.60
2017-12-07T14:09:45.953Z,12.00
2017-12-07T14:12:19.200Z,11.90
2017-12-07T14:14:47.257Z,11.80
2017-12-07T14:17:16.261Z,11.40
2017-12-07T14:19:44.301Z,10.90
2017-12-07T14:22:12.336Z,8.80
2017-12-07T14:24:40.356Z,7.00
2017-12-07T14:27:08.388Z,6.10
2017-12-07T14:29:38.337Z,5.50
2017-12-07T14:32:06.361Z,5.10
2017-12-07T14:34:39.409Z,4.60
2017-12-07T14:37:08.384Z,4.50
2017-12-07T14:39:37.377Z,4.40
2017-12-07T14:42:05.406Z,4.20
2017-12-07T14:44:39.740Z,4.10
2017-12-07T14:47:11.161Z,4.00
2017-12-07T14:49:43.085Z,3.80
2017-12-07T14:52:11.105Z,3.70
2017-12-07T14:54:39.133Z,3.70
2017-12-07T14:57:11.569Z,3.50
2017-12-07T14:59:39.597Z,3.40
2017-12-07T15:02:08.396Z,3.20
2017-12-07T15:04:36.432Z,3.20
2017-12-07T15:07:18.136Z,3.10
2017-12-07T15:09:52.864Z,2.90
2017-12-07T15:12:23.552Z,2.80
2017-12-07T15:14:51.581Z,2.80
2017-12-07T15:17:21.281Z,2.60
2017-12-07T15:19:50.072Z,2.50
2017-12-07T15:22:18.868Z,2.40
2017-12-07T15:24:46.900Z,2.40
2017-12-07T15:27:14.925Z,2.30
2017-12-07T15:29:47.572Z,2.20
2017-12-07T15:32:16.368Z,2.20
2017-12-07T15:34:45.153Z,2.10
2017-12-07T15:37:17.805Z,2.00
2017-12-07T15:39:46.788Z,2.00
2017-12-07T15:42:14.819Z,1.90
2017-12-07T15:44:43.753Z,1.70
2017-12-07T15:47:15.517Z,1.50
2017-12-07T15:49:43.541Z,1.20
2017-12-07T15:52:15.245Z,1.00
2017-12-07T15:54:44.173Z,0.80
2017-12-07T15:57:14.773Z,0.40
2017-12-07T15:59:42.805Z,0.40
2017-12-07T16:02:10.825Z,0.30
2017-12-07T16:04:39.625Z,0.20
2017-12-07T16:07:07.653Z,0.10
2017-12-07T16:09:36.637Z,0.20
2017-12-07T16:12:04.680Z,0.10
2017-12-07T16:14:32.701Z,0.10
2017-12-07T16:17:04.473Z,0.10
2017-12-07T16:19:33.265Z,0.10
2017-12-07T16:22:01.289Z,0.10
2017-12-07T16:24:29.329Z,0.20
2017-12-07T16:26:58.360Z,0.20
2017-12-07T16:29:28.401Z,0.20
2017-12-07T16:32:01.797Z,0.30
2017-12-07T16:34:32.525Z,0.40
2017-12-07T16:37:04.264Z,0.30
2017-12-07T16:39:39.793Z,0.30
2017-12-07T16:42:08.700Z,0.40
2017-12-07T16:44:36.721Z,0.50
2017-12-07T16:47:04.761Z,0.50
2017-12-07T16:49:43.933Z,0.70
2017-12-07T16:52:12.972Z,0.70
2017-12-07T16:54:40.988Z,0.70
2017-12-07T16:57:15.245Z,0.70
2017-12-07T16:59:49.061Z,0.70
2017-12-07T17:02:18.793Z,0.70
2017-12-07T17:04:47.585Z,0.50
2017-12-07T17:07:29.024Z,0.50
2017-12-07T17:10:02.032Z,0.40
2017-12-07T17:12:31.349Z,0.40
2017-12-07T17:15:17.340Z,0.30
2017-12-07T17:17:47.100Z,0.20
2017-12-07T17:20:15.132Z,0.20
2017-12-07T17:22:43.148Z,0.20
2017-12-07T17:25:15.688Z,0.10
2017-12-07T17:27:51.492Z,0.20
2017-12-07T17:30:19.540Z,0.30
2017-12-07T17:32:49.576Z,0.30
2017-12-07T17:35:17.593Z,0.30
2017-12-07T17:37:50.194Z,0.40
2017-12-07T17:40:20.112Z,0.40
2017-12-07T17:42:51.908Z,0.40
2017-12-07T17:45:31.620Z,0.40
2017-12-07T17:47:59.668Z,0.50
2017-12-07T17:50:27.688Z,0.50
2017-12-07T17:52:56.619Z,0.60
2017-12-07T17:55:24.656Z,0.50
2017-12-07T17:57:52.680Z,0.60
2017-12-07T18:00:20.712Z,0.70
2017-12-07T18:02:49.536Z,0.60
2017-12-07T18:05:22.439Z,0.60
2017-12-07T18:07:51.466Z,0.60
2017-12-07T18:10:22.160Z,0.60
2017-12-07T18:12:50.200Z,0.60
2017-12-07T18:15:18.280Z,0.60
2017-12-07T18:17:46.296Z,0.50
2017-12-07T18:20:18.122Z,0.50
2017-12-07T18:22:51.003Z,0.50
2017-12-07T18:25:19.048Z,0.40
2017-12-07T18:27:51.857Z,0.40
2017-12-07T18:30:19.907Z,0.40
2017-12-07T18:32:47.919Z,0.40
2017-12-07T18:35:17.844Z,0.40
2017-12-07T18:37:46.784Z,0.40
2017-12-07T18:40:18.172Z,0.40
2017-12-07T18:42:46.200Z,0.40
2017-12-07T18:45:15.164Z,0.40
2017-12-07T18:47:48.158Z,0.50
2017-12-07T18:50:18.984Z,0.50
2017-12-07T18:52:51.128Z,0.50
2017-12-07T18:55:22.277Z,0.50
2017-12-07T18:57:50.299Z,0.50
2017-12-07T19:00:18.316Z,0.40
2017-12-07T19:02:46.355Z,0.40
2017-12-07T19:05:14.388Z,0.40
2017-12-07T19:07:42.415Z,0.30
2017-12-07T19:10:10.460Z,0.30
2017-12-07T19:12:41.611Z,0.30
2017-12-07T19:15:17.455Z,0.30
2017-12-07T19:17:46.375Z,0.30
2017-12-07T19:20:14.395Z,0.40
2017-12-07T19:22:50.691Z,0.30
2017-12-07T19:25:20.495Z,0.20
2017-12-07T19:27:48.523Z,0.30
2017-12-07T19:30:16.564Z,0.30
2017-12-07T19:32:48.538Z,0.30
2017-12-07T19:35:17.535Z,0.40
2017-12-07T19:37:46.335Z,0.30
2017-12-07T19:40:14.367Z,0.30
2017-12-07T19:42:43.375Z,0.40
2017-12-07T19:45:11.403Z,0.40
2017-12-07T19:47:41.315Z,0.40
2017-12-07T19:50:13.139Z,0.50
2017-12-07T19:52:42.823Z,0.50
2017-12-07T19:55:14.979Z,0.50
2017-12-07T19:57:43.007Z,0.50
2017-12-07T20:00:11.027Z,0.50
2017-12-07T20:02:39.055Z,0.60
2017-12-07T20:05:20.547Z,0.60
2017-12-07T20:07:50.479Z,0.60
2017-12-07T20:10:22.607Z,0.60
2017-12-07T20:12:50.642Z,0.50
2017-12-07T20:15:21.355Z,0.50
2017-12-07T20:17:49.386Z,0.50
2017-12-07T20:20:17.431Z,0.60
2017-12-07T20:22:45.454Z,0.60
2017-12-07T20:25:13.478Z,0.60
2017-12-07T20:27:41.502Z,0.50
2017-12-07T20:30:15.298Z,0.50
2017-12-07T20:32:44.230Z,0.40
2017-12-07T20:35:12.254Z,0.40
2017-12-07T20:37:43.298Z,0.30
2017-12-07T20:40:19.770Z,0.30
2017-12-07T20:42:48.555Z,0.30
2017-12-07T20:45:16.570Z,0.30
2017-12-07T20:47:44.638Z,0.30
2017-12-07T20:50:13.553Z,0.40
2017-12-07T20:52:49.334Z,0.40
2017-12-07T20:55:17.354Z,0.40
2017-12-07T20:57:47.314Z,0.50
2017-12-07T21:00:15.502Z,0.60
2017-12-07T21:02:48.678Z,0.60
2017-12-07T21:05:18.890Z,0.70
2017-12-07T21:07:46.913Z,0.70
2017-12-07T21:10:14.946Z,0.80
2017-12-07T21:12:43.030Z,0.90
2017-12-07T21:15:11.050Z,1.10
2017-12-07T21:17:42.782Z,1.10
2017-12-07T21:20:10.806Z,1.20
2017-12-07T21:22:38.830Z,1.30
2017-12-07T21:25:11.010Z,1.40
2017-12-07T21:27:39.038Z,1.40
2017-12-07T21:30:07.830Z,1.60
2017-12-07T21:32:36.670Z,1.60
2017-12-07T21:35:04.698Z,1.60
2017-12-07T21:37:36.586Z,1.70
2017-12-07T21:40:16.134Z,1.70
2017-12-07T21:42:44.969Z,1.70
2017-12-07T21:45:12.994Z,1.70
2017-12-07T21:47:53.270Z,1.80
2017-12-07T21:50:33.952Z,1.80
2017-12-07T21:53:02.013Z,1.80
2017-12-07T21:55:30.034Z,1.80
2017-12-07T21:58:11.641Z,1.80
2017-12-07T22:00:39.669Z,1.80
2017-12-07T22:03:09.446Z,1.90
2017-12-07T22:05:38.253Z,2.00
2017-12-07T22:08:14.681Z,2.10
2017-12-07T22:10:47.918Z,2.10
2017-12-07T22:13:19.866Z,2.30
2017-12-07T22:15:48.870Z,2.30
2017-12-07T22:18:17.790Z,2.40
2017-12-07T22:20:45.830Z,2.50
2017-12-07T22:23:13.837Z,2.50
2017-12-07T22:25:42.770Z,2.50
2017-12-07T22:28:10.786Z,2.50
2017-12-07T22:30:44.353Z,2.60
2017-12-07T22:33:14.270Z,2.60
2017-12-07T22:35:42.397Z,2.60
2017-12-07T22:38:23.106Z,2.70
2017-12-07T22:40:51.126Z,2.70
2017-12-07T22:43:19.154Z,2.80
2017-12-07T22:45:47.966Z,2.90
2017-12-07T22:48:15.989Z,2.90
2017-12-07T22:50:49.705Z,2.90
2017-12-07T22:53:41.089Z,2.90
2017-12-07T22:56:12.293Z,2.90
2017-12-07T22:58:41.090Z,3.00
2017-12-07T23:01:09.115Z,2.90
2017-12-07T23:03:38.129Z,3.00
2017-12-07T23:06:06.926Z,3.20
2017-12-07T23:08:35.705Z,3.30
2017-12-07T23:11:07.780Z,3.40
2017-12-07T23:13:36.565Z,3.40
2017-12-07T23:16:12.773Z,3.30
2017-12-07T23:18:40.797Z,3.30
2017-12-07T23:21:15.465Z,3.40
2017-12-07T23:23:45.401Z,3.40
2017-12-07T23:26:13.416Z,3.40
2017-12-07T23:28:43.393Z,3.40
2017-12-07T23:31:12.385Z,3.40
2017-12-07T23:33:40.397Z,3.30
2017-12-07T23:36:08.428Z,3.40
2017-12-07T23:38:36.459Z,3.40
2017-12-07T23:41:06.401Z,3.40
2017-12-07T23:43:34.443Z,3.30
2017-12-07T23:46:05.133Z,3.00
2017-12-07T23:48:33.927Z,2.90
2017-12-07T23:51:11.053Z,2.80
2017-12-07T23:53:39.102Z,2.80
2017-12-07T23:56:08.033Z,2.80
2017-12-07T23:58:38.053Z,2.70
